Time;durP1;ratioP1;P1;durP2;ratioP2;P2;SDS_P1;SDS_P2;PMS_P1;PMS_P2;Temp;Humidity;BMP_temperature;BMP_pressure;BME280_temperature;BME280_humidity;BME280_pressure;Samples;Min_cycle;Max_cycle;Signal;HPM_P1;HPM_P2
2021/01/22 00:01:07;;;;;;;3.05;1.40;;;8.00;99.90;;;;;;4999883;28;20053;-75
2021/01/22 00:03:34;;;;;;;5.15;2.00;;;8.00;99.90;;;;;;4996474;28;20662;-70
2021/01/22 00:06:01;;;;;;;6.00;2.22;;;8.10;99.90;;;;;;4997327;28;20072;-70
2021/01/22 00:08:27;;;;;;;5.90;2.15;;;8.00;99.90;;;;;;4997289;28;20419;-70
2021/01/22 00:10:54;;;;;;;5.07;2.10;;;7.80;99.90;;;;;;4998086;28;20050;-70
2021/01/22 00:13:21;;;;;;;4.65;2.10;;;7.80;99.90;;;;;;5004416;28;20077;-70
2021/01/22 00:15:47;;;;;;;6.70;2.67;;;7.70;99.90;;;;;;5017994;28;20053;-72
2021/01/22 00:18:14;;;;;;;4.40;2.00;;;7.70;99.90;;;;;;5019221;28;20179;-75
2021/01/22 00:20:41;;;;;;;4.63;1.60;;;7.60;99.90;;;;;;5014864;28;20054;-75
2021/01/22 00:23:07;;;;;;;4.07;1.92;;;7.70;99.90;;;;;;5014354;28;20062;-73
2021/01/22 00:25:34;;;;;;;;;;;7.60;99.90;;;;;;5005307;28;20046;-74
2021/01/22 00:28:00;;;;;;;6.22;2.33;;;7.60;99.90;;;;;;5003115;28;19975;-76
2021/01/22 00:30:27;;;;;;;6.30;2.20;;;7.60;99.90;;;;;;5008307;28;20041;-74
2021/01/22 00:32:53;;;;;;;4.20;1.95;;;7.60;99.90;;;;;;5008633;28;20049;-75
2021/01/22 00:35:19;;;;;;;;;;;7.50;99.90;;;;;;5004427;28;20052;-76
2021/01/22 00:37:47;;;;;;;4.40;1.98;;;7.60;99.90;;;;;;5013048;28;20667;-76
2021/01/22 00:40:14;;;;;;;5.25;1.90;;;7.70;99.90;;;;;;5015174;28;20904;-72
2021/01/22 00:42:41;;;;;;;4.40;2.13;;;7.70;99.90;;;;;;5009791;28;20682;-73
2021/01/22 00:45:08;;;;;;;8.10;3.15;;;7.80;99.90;;;;;;5021944;28;20061;-72
2021/01/22 00:47:35;;;;;;;3.42;1.70;;;7.90;99.90;;;;;;5011621;28;20522;-72
2021/01/22 00:50:01;;;;;;;6.10;2.50;;;7.80;99.90;;;;;;5025493;28;20049;-72
2021/01/22 00:52:28;;;;;;;5.13;2.10;;;7.80;99.90;;;;;;5009138;28;20049;-72
2021/01/22 00:54:55;;;;;;;;;;;7.80;99.90;;;;;;5025794;28;20050;-76
2021/01/22 00:57:22;;;;;;;3.88;1.70;;;7.70;99.90;;;;;;5026666;28;19925;-72
2021/01/22 00:59:48;;;;;;;4.25;1.63;;;7.80;99.90;;;;;;5024341;28;20385;-72
2021/01/22 01:02:14;;;;;;;;;;;7.70;99.90;;;;;;5025161;28;20053;-76
2021/01/22 01:04:41;;;;;;;3.53;1.63;;;7.70;99.90;;;;;;5025339;28;19932;-72
2021/01/22 01:07:07;;;;;;;3.65;1.33;;;7.80;99.90;;;;;;5025240;28;20081;-72
2021/01/22 01:09:34;;;;;;;3.15;1.45;;;7.80;99.90;;;;;;5026110;28;20050;-77
2021/01/22 01:12:01;;;;;;;4.22;1.20;;;7.90;99.90;;;;;;5005475;28;20499;-73
2021/01/22 01:14:28;;;;;;;3.95;1.52;;;7.90;99.90;;;;;;5005672;28;20050;-71
2021/01/22 01:16:54;;;;;;;4.05;1.50;;;7.90;99.90;;;;;;5005580;28;20050;-76
2021/01/22 01:19:21;;;;;;;2.75;1.48;;;7.90;99.90;;;;;;5006490;28;20484;-76
2021/01/22 01:21:47;;;;;;;7.63;1.45;;;7.90;99.90;;;;;;5005369;28;20096;-72
2021/01/22 01:24:14;;;;;;;2.80;1.23;;;7.90;99.90;;;;;;5005204;28;20197;-76
2021/01/22 01:26:40;;;;;;;2.83;1.35;;;7.90;99.90;;;;;;5006533;28;20559;-71
2021/01/22 01:29:08;;;;;;;2.72;1.10;;;7.90;99.90;;;;;;5007340;28;20070;-71
2021/01/22 01:31:34;;;;;;;3.38;1.42;;;8.00;99.90;;;;;;5025280;28;20101;-73
2021/01/22 01:34:01;;;;;;;3.45;1.58;;;8.00;99.90;;;;;;5024498;28;20467;-72
2021/01/22 01:36:27;;;;;;;3.58;1.20;;;8.10;99.90;;;;;;5025711;28;20582;-71
2021/01/22 01:38:53;;;;;;;;;;;8.00;99.90;;;;;;5026152;28;20104;-75
2021/01/22 01:41:20;;;;;;;4.03;1.42;;;8.00;99.90;;;;;;5025616;28;19925;-72
2021/01/22 01:43:47;;;;;;;5.75;1.30;;;8.00;99.90;;;;;;5025087;28;20093;-72
2021/01/22 01:46:14;;;;;;;;;;;8.20;99.90;;;;;;5026053;28;20057;-72
2021/01/22 01:48:40;;;;;;;7.88;1.70;;;8.10;99.90;;;;;;5025733;28;19971;-71
2021/01/22 01:51:07;;;;;;;5.03;1.50;;;8.10;99.90;;;;;;5026117;28;20108;-77
2021/01/22 01:53:33;;;;;;;4.05;1.63;;;8.10;99.90;;;;;;5024148;28;20053;-74
2021/01/22 01:56:01;;;;;;;4.40;1.60;;;8.10;99.90;;;;;;5025182;28;20053;-71
2021/01/22 01:58:31;;;;;;;3.50;1.35;;;8.30;99.90;;;;;;5010788;28;20050;-76
2021/01/22 02:00:57;;;;;;;2.97;1.30;;;8.30;99.90;;;;;;5011178;28;20049;-71
2021/01/22 02:03:25;;;;;;;3.58;1.50;;;8.20;99.90;;;;;;5004232;28;20133;-74
2021/01/22 02:05:52;;;;;;;4.03;1.58;;;8.30;99.90;;;;;;5005164;28;20493;-71
2021/01/22 02:08:19;;;;;;;3.67;1.50;;;8.30;99.90;;;;;;5005049;28;20050;-71
2021/01/22 02:10:47;;;;;;;3.92;1.52;;;8.30;99.90;;;;;;5005903;28;20053;-71
2021/01/22 02:13:15;;;;;;;5.72;1.92;;;8.30;99.90;;;;;;5004488;28;20065;-71
2021/01/22 02:15:42;;;;;;;2.83;1.45;;;8.20;99.90;;;;;;5004548;28;20049;-72
2021/01/22 02:18:10;;;;;;;2.58;1.10;;;8.20;99.90;;;;;;5005114;28;20405;-71
2021/01/22 02:20:49;;;;;;;3.03;1.42;;;8.20;99.90;;;;;;5004752;28;20133;-71
2021/01/22 02:23:18;;;;;;;6.00;1.60;;;8.20;99.90;;;;;;5004456;28;20058;-73
2021/01/22 02:25:45;;;;;;;4.05;1.70;;;8.20;99.90;;;;;;5008884;28;20057;-75
2021/01/22 02:28:14;;;;;;;3.95;1.40;;;8.10;99.90;;;;;;5015763;28;20057;-76
2021/01/22 02:30:42;;;;;;;3.97;1.50;;;8.20;99.90;;;;;;5019882;28;20049;-71
2021/01/22 02:33:11;;;;;;;3.72;1.27;;;8.10;99.90;;;;;;5005674;28;20049;-71
2021/01/22 02:35:38;;;;;;;3.58;1.60;;;8.10;99.90;;;;;;5005649;28;20054;-71
2021/01/22 02:38:07;;;;;;;4.03;1.30;;;8.10;99.90;;;;;;5006646;28;20651;-76
2021/01/22 02:40:36;;;;;;;4.15;1.23;;;8.10;99.90;;;;;;5002293;28;20058;-73
2021/01/22 02:43:04;;;;;;;3.25;1.75;;;8.10;99.90;;;;;;5004388;28;20848;-71
2021/01/22 02:45:32;;;;;;;3.22;1.45;;;8.00;99.90;;;;;;5006501;28;20054;-71
2021/01/22 02:47:59;;;;;;;4.68;1.60;;;8.10;99.90;;;;;;5006820;28;20455;-71
2021/01/22 02:50:31;;;;;;;3.08;1.35;;;8.10;99.90;;;;;;5005999;28;20054;-73
2021/01/22 02:53:00;;;;;;;3.90;1.33;;;8.10;99.90;;;;;;5008654;28;20499;-71
2021/01/22 02:55:27;;;;;;;4.40;1.50;;;8.20;99.90;;;;;;5009328;28;20504;-75
2021/01/22 02:58:00;;;;;;;2.75;1.30;;;8.30;99.90;;;;;;5008874;28;20065;-75
2021/01/22 03:00:31;;;;;;;3.05;1.27;;;8.30;99.90;;;;;;5014344;28;20495;-72
2021/01/22 03:03:07;;;;;;;3.40;1.40;;;8.30;99.90;;;;;;5005003;28;20136;-71
2021/01/22 03:05:36;;;;;;;3.20;1.30;;;8.30;99.90;;;;;;5006226;28;20815;-71
2021/01/22 03:08:08;;;;;;;3.97;1.60;;;8.30;99.90;;;;;;5001668;28;20113;-71
2021/01/22 03:10:37;;;;;;;3.88;1.38;;;8.20;99.90;;;;;;5012956;28;20100;-71
2021/01/22 03:13:04;;;;;;;2.90;1.30;;;8.30;99.90;;;;;;5002685;28;20149;-71
2021/01/22 03:15:33;;;;;;;3.25;1.60;;;8.30;99.90;;;;;;5005303;28;20053;-71
2021/01/22 03:18:14;;;;;;;4.40;1.40;;;8.30;99.90;;;;;;5013445;28;20411;-76
2021/01/22 03:20:43;;;;;;;2.25;1.05;;;8.30;99.90;;;;;;5024768;28;20069;-71
2021/01/22 03:23:10;;;;;;;3.67;1.17;;;8.30;99.90;;;;;;5018636;28;20086;-71
2021/01/22 03:25:36;;;;;;;2.90;1.38;;;8.30;99.90;;;;;;5012744;28;20045;-75
2021/01/22 03:28:04;;;;;;;3.13;1.40;;;8.30;99.90;;;;;;5023972;28;20415;-71
2021/01/22 03:30:31;;;;;;;2.03;0.85;;;8.30;99.90;;;;;;5006668;28;20053;-71
2021/01/22 03:32:58;;;;;;;2.88;1.00;;;8.30;99.90;;;;;;5007816;28;20133;-71
2021/01/22 03:35:25;;;;;;;2.70;1.48;;;8.30;99.90;;;;;;5008816;28;20046;-71
2021/01/22 03:37:52;;;;;;;2.50;1.48;;;8.30;99.90;;;;;;5009436;28;20092;-71
2021/01/22 03:40:19;;;;;;;2.45;1.00;;;8.30;99.90;;;;;;5008691;28;20053;-71
2021/01/22 03:42:46;;;;;;;3.35;1.17;;;8.30;99.90;;;;;;5007337;28;20050;-73
2021/01/22 03:45:13;;;;;;;2.35;1.02;;;8.30;99.90;;;;;;5008523;28;20050;-71
2021/01/22 03:47:40;;;;;;;1.45;0.85;;;8.30;99.90;;;;;;5015208;28;20512;-75
2021/01/22 03:50:08;;;;;;;6.00;1.13;;;8.40;99.90;;;;;;5019316;28;20057;-72
2021/01/22 03:52:36;;;;;;;2.88;1.10;;;8.40;99.90;;;;;;5011718;28;20057;-72
2021/01/22 03:55:03;;;;;;;2.88;1.10;;;8.40;99.90;;;;;;5028474;28;20049;-73
2021/01/22 03:57:29;;;;;;;2.95;1.20;;;8.40;99.90;;;;;;5027738;28;20050;-71
2021/01/22 03:59:56;;;;;;;1.88;1.00;;;8.30;99.90;;;;;;5024341;28;20046;-71
2021/01/22 04:02:24;;;;;;;2.90;1.08;;;8.30;99.90;;;;;;5019776;28;20152;-76
2021/01/22 04:04:50;;;;;;;4.40;0.90;;;8.30;99.90;;;;;;5021811;28;20127;-71
2021/01/22 04:07:17;;;;;;;3.20;1.00;;;8.30;99.90;;;;;;5040707;28;20060;-76
2021/01/22 04:09:45;;;;;;;2.75;1.00;;;8.30;99.90;;;;;;5045625;28;20060;-77
2021/01/22 04:12:11;;;;;;;1.95;1.00;;;8.20;99.90;;;;;;5043169;28;20060;-70
2021/01/22 04:14:38;;;;;;;2.33;0.95;;;8.30;99.90;;;;;;5025732;28;20061;-74
2021/01/22 04:17:04;;;;;;;2.30;1.00;;;8.40;99.90;;;;;;5026067;28;20052;-74
2021/01/22 04:19:31;;;;;;;1.90;0.90;;;8.40;99.90;;;;;;5017848;28;20136;-70
2021/01/22 04:21:57;;;;;;;3.55;0.90;;;8.40;99.90;;;;;;5026400;28;20508;-71
2021/01/22 04:24:24;;;;;;;1.65;0.77;;;8.50;99.90;;;;;;5023334;28;20103;-71
2021/01/22 04:26:51;;;;;;;1.85;0.75;;;8.50;99.90;;;;;;5010171;28;20056;-76
2021/01/22 04:29:18;;;;;;;2.25;0.82;;;8.50;99.90;;;;;;5020376;28;20096;-70
2021/01/22 04:31:45;;;;;;;3.05;0.82;;;8.40;99.90;;;;;;5005314;28;20046;-74
2021/01/22 04:34:15;;;;;;;2.45;0.90;;;8.50;99.90;;;;;;5008297;28;20096;-70
2021/01/22 04:36:41;;;;;;;2.15;0.70;;;8.40;99.90;;;;;;5023930;28;20049;-74
2021/01/22 04:39:09;;;;;;;2.05;0.68;;;8.40;99.90;;;;;;5025080;28;20095;-72
2021/01/22 04:41:36;;;;;;;2.33;0.80;;;8.40;99.90;;;;;;5023897;28;20084;-75
2021/01/22 04:44:04;;;;;;;1.45;0.70;;;8.40;99.90;;;;;;5023725;28;20045;-72
2021/01/22 04:46:33;;;;;;;2.15;1.00;;;8.30;99.90;;;;;;5022219;28;20045;-71
2021/01/22 04:49:00;;;;;;;1.80;0.80;;;8.30;99.90;;;;;;5023700;28;20054;-75
2021/01/22 04:51:29;;;;;;;1.65;0.70;;;8.40;99.90;;;;;;5024677;28;20115;-73
2021/01/22 04:54:02;;;;;;;1.45;0.70;;;8.30;99.90;;;;;;5023358;28;20521;-70
2021/01/22 04:56:32;;;;;;;1.77;0.70;;;8.30;99.90;;;;;;5025127;28;20376;-72
2021/01/22 04:59:02;;;;;;;1.30;0.70;;;8.30;99.90;;;;;;5017421;28;20095;-75
2021/01/22 05:01:30;;;;;;;1.20;0.52;;;8.30;99.90;;;;;;5021733;28;20045;-70
2021/01/22 05:03:58;;;;;;;1.38;0.47;;;8.30;99.90;;;;;;5023379;28;20096;-71
2021/01/22 05:06:25;;;;;;;2.30;0.73;;;8.30;99.90;;;;;;5025433;28;20490;-72
2021/01/22 05:08:54;;;;;;;1.05;0.45;;;8.40;99.90;;;;;;5021515;28;20049;-70
2021/01/22 05:11:21;;;;;;;1.95;0.70;;;8.20;99.90;;;;;;5024000;28;20053;-73
2021/01/22 05:13:48;;;;;;;2.28;0.80;;;8.20;99.90;;;;;;5022676;28;20049;-70
2021/01/22 05:16:15;;;;;;;2.58;0.77;;;8.30;99.90;;;;;;5024392;28;20061;-74
2021/01/22 05:18:43;;;;;;;2.67;1.00;;;8.20;99.90;;;;;;5023810;28;20056;-70
2021/01/22 05:21:11;;;;;;;1.20;0.65;;;8.20;99.90;;;;;;5025362;28;20065;-75
2021/01/22 05:23:38;;;;;;;2.72;0.70;;;8.20;99.90;;;;;;5013229;28;20054;-74
2021/01/22 05:26:07;;;;;;;3.45;0.90;;;8.20;99.90;;;;;;5003628;28;20050;-68
2021/01/22 05:28:35;;;;;;;3.17;0.90;;;8.20;99.90;;;;;;5004694;28;20108;-69
2021/01/22 05:31:02;;;;;;;3.15;0.80;;;8.20;99.90;;;;;;5003727;28;20096;-69
2021/01/22 05:33:29;;;;;;;2.08;0.90;;;8.30;99.90;;;;;;5003619;28;20470;-69
2021/01/22 05:35:57;;;;;;;3.22;0.90;;;8.40;99.90;;;;;;5004554;28;20070;-68
2021/01/22 05:38:41;;;;;;;3.03;0.85;;;8.40;99.90;;;;;;5005099;28;20061;-69
2021/01/22 05:41:08;;;;;;;4.45;0.85;;;8.50;99.90;;;;;;5004537;28;20216;-69
2021/01/22 05:43:36;;;;;;;2.42;1.00;;;8.50;99.90;;;;;;5003158;28;20056;-69
2021/01/22 05:46:04;;;;;;;4.38;0.98;;;8.50;99.90;;;;;;5004008;28;20057;-69
2021/01/22 05:48:30;;;;;;;2.70;0.75;;;8.50;99.90;;;;;;5004731;28;20100;-68
2021/01/22 05:50:59;;;;;;;1.77;0.80;;;8.50;99.90;;;;;;5004695;28;20046;-68
2021/01/22 05:53:27;;;;;;;3.92;0.93;;;8.50;99.90;;;;;;5002830;28;20060;-69
2021/01/22 05:56:07;;;;;;;1.85;0.60;;;8.50;99.90;;;;;;5004519;28;20058;-69
2021/01/22 05:58:35;;;;;;;2.08;0.95;;;8.50;99.90;;;;;;5003142;28;20459;-68
2021/01/22 06:01:09;;;;;;;3.80;0.73;;;8.50;99.90;;;;;;5003945;28;20054;-69
2021/01/22 06:03:38;;;;;;;1.92;1.13;;;8.50;99.90;;;;;;5002830;28;20519;-69
2021/01/22 06:06:07;;;;;;;3.90;1.20;;;8.50;99.90;;;;;;5003999;28;20500;-69
2021/01/22 06:08:33;;;;;;;3.97;0.75;;;8.50;99.90;;;;;;5002747;28;20140;-69
2021/01/22 06:11:01;;;;;;;3.00;0.70;;;8.50;99.90;;;;;;5004241;28;20057;-69
2021/01/22 06:13:30;;;;;;;5.50;1.38;;;8.50;99.90;;;;;;5002571;28;20514;-68
2021/01/22 06:15:58;;;;;;;3.33;0.82;;;8.50;99.90;;;;;;5004392;28;20104;-69
2021/01/22 06:18:29;;;;;;;2.60;0.80;;;8.50;99.90;;;;;;5005961;28;20096;-74
2021/01/22 06:21:07;;;;;;;4.55;1.48;;;8.50;99.90;;;;;;5003288;28;20515;-71
2021/01/22 06:23:35;;;;;;;1.95;0.75;;;8.50;99.90;;;;;;5003090;28;20508;-71
2021/01/22 06:26:03;;;;;;;3.47;1.10;;;8.40;99.90;;;;;;5003834;28;20104;-71
2021/01/22 06:28:32;;;;;;;3.05;0.82;;;8.40;99.90;;;;;;5008419;28;20057;-76
2021/01/22 06:30:59;;;;;;;2.20;0.90;;;8.40;99.90;;;;;;5005531;28;20049;-71
2021/01/22 06:33:25;;;;;;;3.38;1.10;;;8.40;99.90;;;;;;5003694;28;20056;-71
2021/01/22 06:35:53;;;;;;;3.58;0.93;;;8.40;99.90;;;;;;5003480;28;20141;-70
2021/01/22 06:38:23;;;;;;;2.35;0.77;;;8.40;99.90;;;;;;5004248;28;20077;-74
2021/01/22 06:40:52;;;;;;;2.70;0.93;;;8.40;99.90;;;;;;5006474;28;20049;-71
2021/01/22 06:43:19;;;;;;;4.32;1.00;;;8.40;99.90;;;;;;5006016;28;20137;-71
2021/01/22 06:45:46;;;;;;;4.32;1.00;;;8.50;99.90;;;;;;5010086;28;20083;-73
2021/01/22 06:48:12;;;;;;;4.40;1.10;;;8.40;99.90;;;;;;5007464;28;20076;-71
2021/01/22 06:50:39;;;;;;;6.13;1.38;;;8.40;99.90;;;;;;5003832;28;20076;-70
2021/01/22 06:53:14;;;;;;;3.72;1.35;;;8.40;99.90;;;;;;5000211;28;20443;-72
2021/01/22 06:56:10;;;;;;;1.90;0.68;;;8.40;99.90;;;;;;5003136;28;20530;-70
2021/01/22 06:58:37;;;;;;;2.90;1.10;;;8.40;99.90;;;;;;5008911;28;20045;-75
2021/01/22 07:01:05;;;;;;;6.28;1.20;;;8.40;99.90;;;;;;5020365;28;20049;-75
2021/01/22 07:03:49;;;;;;;5.75;1.23;;;8.40;99.90;;;;;;5018594;28;20049;-73
2021/01/22 07:06:51;;;;;;;3.20;1.08;;;8.30;99.90;;;;;;5020904;28;20056;-71
2021/01/22 07:09:18;;;;;;;2.40;1.00;;;8.30;99.90;;;;;;5011511;28;20090;-71
2021/01/22 07:11:56;;;;;;;3.45;1.10;;;8.20;99.90;;;;;;5020137;28;20538;-75
2021/01/22 07:14:42;;;;;;;4.47;1.58;;;8.20;99.90;;;;;;5010296;28;20099;-70
2021/01/22 07:17:20;;;;;;;6.40;1.60;;;8.20;99.90;;;;;;5009795;28;20057;-72
2021/01/22 07:19:52;;;;;;;5.78;1.42;;;8.20;99.90;;;;;;5023019;28;20054;-71
2021/01/22 07:22:20;;;;;;;3.17;1.27;;;8.20;99.90;;;;;;5018564;28;20136;-73
2021/01/22 07:24:50;;;;;;;3.35;1.27;;;8.30;99.90;;;;;;5018136;28;20042;-72
2021/01/22 07:27:18;;;;;;;5.25;1.77;;;8.30;99.90;;;;;;5023295;28;20049;-70
2021/01/22 07:30:12;;;;;;;6.20;1.50;;;8.30;99.90;;;;;;5020481;28;20095;-74
2021/01/22 07:32:39;;;;;;;4.28;1.35;;;8.30;99.90;;;;;;5013830;28;20050;-74
2021/01/22 07:35:07;;;;;;;4.60;1.38;;;8.40;99.90;;;;;;5017704;28;20096;-71
2021/01/22 07:37:39;;;;;;;6.70;1.55;;;8.40;99.90;;;;;;5013737;28;20053;-70
2021/01/22 07:40:12;;;;;;;4.57;1.52;;;8.40;99.90;;;;;;5013641;28;20037;-70
2021/01/22 07:42:40;;;;;;;3.45;1.40;;;8.40;99.90;;;;;;5015725;28;20080;-71
2021/01/22 07:45:12;;;;;;;4.70;1.25;;;8.40;99.90;;;;;;5013887;28;20265;-71
2021/01/22 07:47:41;;;;;;;5.47;1.58;;;8.40;99.90;;;;;;5008472;28;20123;-71
2021/01/22 07:50:09;;;;;;;9.23;1.42;;;8.40;99.90;;;;;;5005952;28;20116;-70
2021/01/22 07:52:37;;;;;;;6.60;1.48;;;8.40;99.90;;;;;;5019540;28;20406;-74
2021/01/22 07:55:05;;;;;;;7.03;1.45;;;8.40;99.90;;;;;;5025229;28;20060;-74
2021/01/22 07:57:32;;;;;;;4.10;1.05;;;8.40;99.90;;;;;;5021449;28;20045;-70
2021/01/22 08:00:07;;;;;;;3.63;1.35;;;8.30;99.90;;;;;;5006351;28;20046;-71
2021/01/22 08:02:34;;;;;;;4.68;1.42;;;8.30;99.90;;;;;;5005117;28;20058;-71
2021/01/22 08:05:02;;;;;;;3.15;1.10;;;8.30;99.90;;;;;;5008238;28;20049;-71
2021/01/22 08:07:36;;;;;;;7.38;1.67;;;8.40;99.90;;;;;;5017878;28;20046;-74
2021/01/22 08:10:04;;;;;;;4.03;1.20;;;8.40;99.90;;;;;;5023161;28;20344;-70
2021/01/22 08:12:31;;;;;;;5.30;1.30;;;8.40;99.90;;;;;;5024524;28;20072;-70
2021/01/22 08:15:00;;;;;;;4.85;1.30;;;8.50;99.90;;;;;;5025972;28;20447;-72
2021/01/22 08:17:26;;;;;;;3.78;1.55;;;8.50;99.90;;;;;;5027944;28;20423;-72
2021/01/22 08:19:53;;;;;;;4.70;1.58;;;8.60;99.90;;;;;;5015027;28;20049;-70
2021/01/22 08:22:20;;;;;;;7.53;1.60;;;8.70;99.90;;;;;;5012593;28;20056;-74
2021/01/22 08:24:50;;;;;;;3.65;1.50;;;8.70;99.90;;;;;;5016130;28;20041;-72
2021/01/22 08:27:23;;;;;;;4.80;1.60;;;8.80;99.90;;;;;;5021566;28;20050;-72
2021/01/22 08:29:51;;;;;;;5.20;1.20;;;8.80;99.90;;;;;;5016614;28;20054;-71
2021/01/22 08:32:19;;;;;;;5.15;1.88;;;8.80;99.90;;;;;;5020738;28;20056;-70
2021/01/22 08:34:46;;;;;;;4.38;1.08;;;8.90;99.90;;;;;;5017330;28;20048;-71
2021/01/22 08:37:15;;;;;;;6.88;1.27;;;8.80;99.90;;;;;;5018786;28;20463;-70
2021/01/22 08:39:51;;;;;;;3.53;1.08;;;8.80;99.90;;;;;;5018742;28;20046;-72
2021/01/22 08:42:18;;;;;;;3.55;1.15;;;8.80;99.90;;;;;;5020975;28;20419;-72
2021/01/22 08:44:56;;;;;;;4.32;1.08;;;8.70;99.90;;;;;;5029016;28;20049;-72
2021/01/22 08:47:24;;;;;;;4.13;1.33;;;8.70;99.90;;;;;;5029341;28;20458;-70
2021/01/22 08:49:56;;;;;;;3.05;1.05;;;8.70;99.90;;;;;;5027808;28;20045;-70
2021/01/22 08:52:23;;;;;;;5.20;1.25;;;8.70;99.90;;;;;;5020253;28;20503;-71
2021/01/22 08:54:53;;;;;;;3.58;1.20;;;8.70;99.90;;;;;;5009401;28;20095;-74
2021/01/22 08:57:20;;;;;;;2.97;1.55;;;8.70;99.90;;;;;;5008500;28;20144;-72
2021/01/22 08:59:50;;;;;;;4.07;1.10;;;8.80;99.90;;;;;;5008688;28;20053;-71
2021/01/22 09:02:36;;;;;;;3.03;1.20;;;8.80;99.90;;;;;;5017385;28;20045;-70
2021/01/22 09:05:08;;;;;;;7.40;1.52;;;8.90;99.90;;;;;;5020143;28;20056;-70
2021/01/22 09:07:35;;;;;;;4.35;1.30;;;9.00;99.90;;;;;;5028163;28;20071;-73
2021/01/22 09:10:03;;;;;;;4.15;1.40;;;9.10;99.90;;;;;;5027829;28;20061;-73
2021/01/22 09:12:31;;;;;;;5.43;1.10;;;9.20;99.90;;;;;;5028321;28;20502;-70
2021/01/22 09:15:00;;;;;;;3.30;1.40;;;9.30;99.90;;;;;;5028131;28;20381;-70
2021/01/22 09:17:38;;;;;;;3.15;1.10;;;9.30;99.90;;;;;;5028544;28;20152;-72
2021/01/22 09:20:12;;;;;;;5.57;1.10;;;9.50;99.90;;;;;;5020854;28;20054;-75
2021/01/22 09:22:39;;;;;;;3.70;1.02;;;9.70;99.90;;;;;;5018151;28;20053;-71
2021/01/22 09:25:07;;;;;;;2.25;0.80;;;9.90;99.90;;;;;;5020304;28;20058;-71
2021/01/22 09:27:35;;;;;;;2.85;1.00;;;10.40;99.90;;;;;;5017678;28;20100;-71
2021/01/22 09:30:03;;;;;;;3.88;1.25;;;11.00;99.90;;;;;;5008308;28;20430;-69
2021/01/22 09:32:29;;;;;;;2.50;0.93;;;11.20;99.90;;;;;;5013923;28;20060;-68
2021/01/22 09:34:57;;;;;;;1.73;0.70;;;11.10;99.90;;;;;;5015413;28;20446;-69
2021/01/22 09:37:23;;;;;;;1.70;0.65;;;11.80;99.90;;;;;;5015729;28;20056;-69
2021/01/22 09:39:52;;;;;;;4.57;0.80;;;12.70;99.90;;;;;;5014224;28;20049;-69
2021/01/22 09:42:18;;;;;;;2.58;0.90;;;13.60;99.90;;;;;;5010296;28;20049;-69
2021/01/22 09:44:45;;;;;;;2.17;0.90;;;14.30;99.90;;;;;;5009087;28;20049;-69
2021/01/22 09:47:12;;;;;;;2.50;0.98;;;15.30;99.90;;;;;;5009909;28;20111;-68
2021/01/22 09:49:38;;;;;;;3.97;1.02;;;15.60;99.90;;;;;;5011181;28;20041;-69
2021/01/22 09:52:06;;;;;;;4.47;1.10;;;16.00;99.90;;;;;;5014043;28;20454;-68
2021/01/22 09:54:32;;;;;;;3.33;0.95;;;15.40;99.90;;;;;;5009918;28;20100;-68
2021/01/22 09:56:59;;;;;;;2.15;0.70;;;15.10;99.90;;;;;;5010323;28;20072;-68
2021/01/22 09:59:26;;;;;;;2.75;1.00;;;15.30;99.90;;;;;;5015512;28;20037;-68
2021/01/22 10:01:52;;;;;;;2.95;0.90;;;15.90;99.90;;;;;;5015369;28;20475;-69
2021/01/22 10:04:19;;;;;;;3.47;1.00;;;15.90;99.90;;;;;;5017240;28;20046;-69
2021/01/22 10:06:45;;;;;;;3.92;1.02;;;15.70;99.90;;;;;;5015634;28;20050;-69
2021/01/22 10:09:13;;;;;;;3.17;0.98;;;15.00;99.90;;;;;;5017204;28;20236;-69
2021/01/22 10:11:40;;;;;;;2.70;0.77;;;14.50;99.90;;;;;;5017725;28;20044;-69
2021/01/22 10:14:07;;;;;;;4.63;0.98;;;13.60;99.90;;;;;;5018351;28;20496;-68
2021/01/22 10:16:34;;;;;;;5.00;1.20;;;13.00;99.90;;;;;;5015736;28;20053;-69
2021/01/22 10:19:01;;;;;;;4.68;1.00;;;12.50;99.90;;;;;;5018561;28;20444;-69
2021/01/22 10:21:28;;;;;;;4.70;1.17;;;12.00;99.90;;;;;;5013995;28;20508;-69
2021/01/22 10:23:54;;;;;;;4.05;1.00;;;12.00;99.90;;;;;;5021942;28;20053;-69
2021/01/22 10:26:23;;;;;;;5.63;0.90;;;12.00;99.90;;;;;;5012280;28;20057;-69
2021/01/22 10:28:51;;;;;;;5.88;1.38;;;11.90;99.90;;;;;;5015202;28;20513;-68
2021/01/22 10:31:18;;;;;;;2.15;0.85;;;11.90;99.90;;;;;;5017939;28;20050;-69
2021/01/22 10:33:46;;;;;;;3.28;0.85;;;11.90;99.90;;;;;;5020572;28;20061;-68
2021/01/22 10:36:13;;;;;;;5.20;0.90;;;11.90;99.90;;;;;;5026986;28;20054;-68
2021/01/22 10:38:40;;;;;;;1.85;0.77;;;11.80;99.90;;;;;;5024767;28;20076;-68
2021/01/22 10:41:06;;;;;;;3.72;1.00;;;11.80;99.90;;;;;;5017767;28;20050;-69
2021/01/22 10:43:34;;;;;;;2.75;1.00;;;11.80;99.90;;;;;;5022204;28;20049;-68
2021/01/22 10:46:00;;;;;;;4.75;1.05;;;12.00;99.90;;;;;;5015608;28;20050;-69
2021/01/22 10:48:28;;;;;;;5.35;1.38;;;11.90;99.90;;;;;;5017138;28;20049;-68
2021/01/22 10:50:55;;;;;;;4.47;0.98;;;11.80;99.90;;;;;;5019373;28;20091;-69
2021/01/22 10:53:23;;;;;;;6.95;1.00;;;11.80;99.90;;;;;;5017709;28;20041;-68
2021/01/22 10:55:50;;;;;;;4.60;1.00;;;11.80;99.90;;;;;;5025543;28;20464;-69
2021/01/22 10:58:16;;;;;;;4.85;1.10;;;11.80;99.90;;;;;;5024560;28;20057;-68
2021/01/22 11:00:44;;;;;;;3.30;0.80;;;11.70;99.90;;;;;;5016149;28;20053;-69
2021/01/22 11:03:10;;;;;;;2.60;0.98;;;11.80;99.90;;;;;;5013613;28;20057;-68
2021/01/22 11:05:37;;;;;;;3.10;0.93;;;11.80;99.90;;;;;;5015655;28;20148;-68
2021/01/22 11:08:04;;;;;;;5.13;1.08;;;11.90;99.90;;;;;;5015210;28;20050;-69
2021/01/22 11:10:31;;;;;;;4.50;0.88;;;12.00;99.90;;;;;;5020469;28;20045;-68
2021/01/22 11:12:58;;;;;;;4.85;1.00;;;12.00;99.90;;;;;;5010118;28;20334;-68
2021/01/22 11:15:24;;;;;;;3.28;1.00;;;11.90;99.90;;;;;;4995654;28;20424;-68
2021/01/22 11:17:51;;;;;;;6.95;1.20;;;11.90;99.90;;;;;;5003671;28;20057;-68
2021/01/22 11:20:18;;;;;;;9.05;1.38;;;11.80;99.90;;;;;;5004711;28;20152;-69
2021/01/22 11:22:46;;;;;;;5.15;1.63;;;11.80;99.90;;;;;;5009412;28;20038;-68
2021/01/22 11:25:14;;;;;;;2.67;1.13;;;11.90;99.90;;;;;;5019814;28;20539;-69
2021/01/22 11:27:41;;;;;;;4.45;1.40;;;11.80;99.90;;;;;;5024397;28;20077;-68
2021/01/22 11:30:09;;;;;;;6.88;1.45;;;11.90;99.90;;;;;;5025064;28;20056;-68
2021/01/22 11:32:35;;;;;;;4.13;1.05;;;11.80;99.90;;;;;;5018882;28;20046;-69
2021/01/22 11:35:04;;;;;;;4.75;1.50;;;11.80;99.90;;;;;;5016246;28;20049;-68
2021/01/22 11:37:31;;;;;;;7.28;1.25;;;11.90;99.90;;;;;;5016912;28;20526;-68
2021/01/22 11:39:58;;;;;;;6.10;1.77;;;12.00;99.90;;;;;;5007850;28;20049;-68
2021/01/22 11:42:24;;;;;;;6.68;1.40;;;12.10;99.90;;;;;;5023868;28;20045;-69
2021/01/22 11:44:51;;;;;;;3.60;1.08;;;12.20;99.90;;;;;;5012695;28;20058;-68
2021/01/22 11:47:17;;;;;;;6.20;1.27;;;12.20;99.90;;;;;;5010749;28;20050;-69
2021/01/22 11:49:44;;;;;;;6.30;1.77;;;12.20;99.90;;;;;;5025779;28;20423;-69
2021/01/22 11:52:11;;;;;;;3.42;1.10;;;12.20;99.90;;;;;;5029407;28;20053;-69
2021/01/22 11:54:38;;;;;;;4.90;1.48;;;12.20;99.90;;;;;;5024703;28;20045;-68
2021/01/22 11:57:06;;;;;;;7.30;1.25;;;12.20;99.90;;;;;;5026407;28;20065;-68
2021/01/22 11:59:32;;;;;;;3.95;1.23;;;12.20;99.90;;;;;;5016697;28;20057;-69
2021/01/22 12:01:59;;;;;;;5.18;0.95;;;12.20;99.90;;;;;;5010235;28;20104;-68
2021/01/22 12:04:26;;;;;;;3.47;1.13;;;12.30;99.90;;;;;;5010275;28;20053;-68
2021/01/22 12:06:53;;;;;;;5.70;1.20;;;12.30;99.90;;;;;;5025512;28;20056;-68
2021/01/22 12:09:21;;;;;;;6.20;1.52;;;12.40;99.90;;;;;;5028804;28;20061;-68
2021/01/22 12:11:47;;;;;;;4.40;0.65;;;12.50;99.90;;;;;;5019831;28;20041;-68
2021/01/22 12:14:14;;;;;;;6.00;1.30;;;12.50;99.90;;;;;;5013832;28;20046;-68
2021/01/22 12:16:41;;;;;;;5.38;0.85;;;12.70;99.90;;;;;;5009843;28;20050;-68
2021/01/22 12:19:07;;;;;;;3.67;1.30;;;12.70;99.90;;;;;;5022698;28;20057;-67
2021/01/22 12:21:34;;;;;;;4.72;1.40;;;12.70;99.90;;;;;;5028772;28;20049;-67
2021/01/22 12:24:00;;;;;;;4.65;1.10;;;12.70;99.90;;;;;;5029578;28;20404;-68
2021/01/22 12:26:28;;;;;;;9.52;1.45;;;12.70;99.90;;;;;;5030046;28;20057;-68
2021/01/22 12:28:54;;;;;;;4.78;1.35;;;12.80;99.90;;;;;;5023346;28;20045;-68
2021/01/22 12:31:21;;;;;;;7.32;1.20;;;12.80;99.90;;;;;;5028270;28;20041;-68
2021/01/22 12:33:48;;;;;;;4.43;1.02;;;12.60;99.90;;;;;;5012741;28;20107;-68
2021/01/22 12:36:14;;;;;;;5.53;1.05;;;12.70;99.90;;;;;;5012127;28;20471;-68
2021/01/22 12:38:41;;;;;;;7.07;1.65;;;12.80;99.90;;;;;;5019654;28;20080;-68
2021/01/22 12:41:07;;;;;;;2.97;0.90;;;12.80;99.90;;;;;;5015502;28;20049;-68
2021/01/22 12:43:35;;;;;;;6.05;0.90;;;12.80;99.90;;;;;;5019045;28;20046;-68
2021/01/22 12:46:02;;;;;;;7.45;1.17;;;12.70;99.90;;;;;;5012614;28;20508;-68
2021/01/22 12:48:29;;;;;;;2.50;1.08;;;12.80;99.90;;;;;;5019045;28;20055;-69
2021/01/22 12:50:55;;;;;;;3.30;1.00;;;12.80;99.90;;;;;;5007762;28;20053;-68
2021/01/22 12:53:22;;;;;;;6.05;1.10;;;12.90;99.90;;;;;;5018864;28;20539;-68
2021/01/22 12:55:48;;;;;;;4.07;1.38;;;12.80;99.90;;;;;;5010198;28;20079;-69
2021/01/22 12:58:15;;;;;;;6.25;1.60;;;12.80;99.90;;;;;;5019807;28;20049;-69
2021/01/22 13:00:42;;;;;;;3.90;1.35;;;12.80;99.90;;;;;;5021667;28;20061;-69